createdAt,value
2022-08-18T00:00:23.851Z,21.82
2022-08-18T00:03:00.778Z,21.76
2022-08-18T00:05:30.874Z,21.68
2022-08-18T00:08:03.453Z,21.63
2022-08-18T00:10:35.994Z,21.59
2022-08-18T00:13:08.035Z,21.57
2022-08-18T00:15:41.718Z,21.52
2022-08-18T00:18:13.995Z,21.49
2022-08-18T00:20:46.449Z,21.47
2022-08-18T00:23:18.647Z,21.41
2022-08-18T00:25:50.747Z,21.38
2022-08-18T00:28:23.955Z,21.35
2022-08-18T00:30:56.109Z,21.32
2022-08-18T00:33:28.205Z,21.30
2022-08-18T00:36:00.401Z,21.26
2022-08-18T00:38:32.811Z,21.25
2022-08-18T00:41:05.678Z,21.24
2022-08-18T00:43:46.590Z,21.22
2022-08-18T00:46:24.533Z,21.21
2022-08-18T00:48:57.160Z,21.22
2022-08-18T00:51:33.136Z,21.21
2022-08-18T00:54:09.086Z,21.19
2022-08-18T00:56:44.028Z,21.17
2022-08-18T00:59:31.455Z,21.19
2022-08-18T01:02:06.395Z,21.19
2022-08-18T01:04:47.286Z,21.19
2022-08-18T01:07:25.186Z,21.18
2022-08-18T01:10:00.193Z,21.18
2022-08-18T01:12:45.151Z,21.17
2022-08-18T01:15:08.210Z,21.17
2022-08-18T01:18:00.553Z,21.16
2022-08-18T01:20:59.211Z,21.17
2022-08-18T01:23:32.439Z,21.15
2022-08-18T01:26:04.721Z,21.16
2022-08-18T01:28:42.077Z,21.17
2022-08-18T01:31:16.718Z,21.15
2022-08-18T01:33:48.744Z,21.13
2022-08-18T01:36:22.973Z,21.11
2022-08-18T01:38:55.461Z,21.07
2022-08-18T01:41:30.778Z,21.06
2022-08-18T01:44:03.077Z,21.06
2022-08-18T01:46:36.852Z,21.02
2022-08-18T01:49:10.715Z,20.97
2022-08-18T01:51:43.347Z,20.91
2022-08-18T01:54:16.763Z,20.85
2022-08-18T01:56:49.517Z,20.79
2022-08-18T01:59:21.966Z,20.73
2022-08-18T02:01:55.860Z,20.67
2022-08-18T02:04:37.320Z,20.62
2022-08-18T02:07:09.106Z,20.58
2022-08-18T02:09:43.213Z,20.53
2022-08-18T02:12:16.931Z,20.49
2022-08-18T02:14:50.867Z,20.45
2022-08-18T02:17:24.116Z,20.41
2022-08-18T02:19:56.817Z,20.38
2022-08-18T02:22:29.022Z,20.38
2022-08-18T02:25:01.441Z,20.36
2022-08-18T02:27:33.744Z,20.35
2022-08-18T02:30:08.922Z,20.35
2022-08-18T02:32:41.312Z,20.34
2022-08-18T02:35:13.931Z,20.32
2022-08-18T02:37:49.364Z,20.33
2022-08-18T02:40:21.808Z,20.35
2022-08-18T02:42:54.346Z,20.36
2022-08-18T02:45:27.214Z,20.35
2022-08-18T02:47:59.232Z,20.36
2022-08-18T02:50:31.643Z,20.38
2022-08-18T02:53:04.495Z,20.37
2022-08-18T02:55:36.752Z,20.41
2022-08-18T02:58:09.491Z,20.44
2022-08-18T03:00:43.049Z,20.46
2022-08-18T03:03:15.376Z,20.53
2022-08-18T03:05:47.840Z,20.58
2022-08-18T03:08:19.860Z,20.67
2022-08-18T03:10:55.484Z,20.72
2022-08-18T03:13:27.510Z,20.82
2022-08-18T03:16:00.044Z,20.90
2022-08-18T03:18:33.578Z,20.97
2022-08-18T03:21:18.355Z,21.04
2022-08-18T03:24:00.282Z,21.11
2022-08-18T03:26:26.209Z,21.20
2022-08-18T03:29:00.256Z,21.27
2022-08-18T03:31:32.609Z,21.33
2022-08-18T03:34:06.232Z,21.43
2022-08-18T03:36:38.649Z,21.50
2022-08-18T03:39:13.499Z,21.57
2022-08-18T03:41:58.451Z,21.64
2022-08-18T03:44:20.588Z,21.70
2022-08-18T03:46:52.864Z,21.76
2022-08-18T03:49:26.698Z,21.81
2022-08-18T03:52:03.798Z,21.87
2022-08-18T03:54:37.952Z,21.95
2022-08-18T03:57:11.752Z,22.02
2022-08-18T03:59:44.082Z,22.13
2022-08-18T04:02:18.348Z,22.19
2022-08-18T04:04:51.331Z,22.27
2022-08-18T04:07:24.254Z,22.37
2022-08-18T04:09:56.419Z,22.46
2022-08-18T04:12:30.838Z,22.53
2022-08-18T04:15:03.622Z,22.59
2022-08-18T04:17:36.009Z,22.59
2022-08-18T04:20:11.884Z,22.71
2022-08-18T04:22:45.306Z,22.75
2022-08-18T04:25:17.154Z,22.98
2022-08-18T04:27:49.399Z,22.87
2022-08-18T04:30:21.638Z,22.91
2022-08-18T04:35:24.346Z,23.08
2022-08-18T04:37:56.650Z,23.13
2022-08-18T04:40:29.564Z,23.21
2022-08-18T04:43:05.136Z,23.23
2022-08-18T04:45:38.885Z,23.22
2022-08-18T04:48:11.009Z,23.28
2022-08-18T04:50:45.247Z,23.37
2022-08-18T04:53:35.319Z,23.47
2022-08-18T04:56:08.501Z,23.57
2022-08-18T04:58:40.705Z,23.66
2022-08-18T05:01:13.657Z,23.76
2022-08-18T05:03:50.064Z,23.84
2022-08-18T05:06:23.606Z,23.92
2022-08-18T05:08:59.521Z,24.01
2022-08-18T05:11:34.926Z,24.05
2022-08-18T05:14:09.658Z,24.08
2022-08-18T05:16:48.147Z,24.06
2022-08-18T05:19:16.633Z,24.01
2022-08-18T05:21:52.406Z,24.02
2022-08-18T05:24:26.777Z,24.05
2022-08-18T05:26:59.554Z,24.11
2022-08-18T05:29:45.771Z,24.14
2022-08-18T05:32:37.373Z,24.21
2022-08-18T05:34:50.363Z,24.30
2022-08-18T05:37:35.784Z,24.40
2022-08-18T05:40:11.558Z,24.52
2022-08-18T05:42:45.481Z,24.68
2022-08-18T05:45:19.514Z,24.82
2022-08-18T05:47:53.233Z,24.94
2022-08-18T05:50:27.098Z,25.06
2022-08-18T05:53:03.316Z,25.20
2022-08-18T05:56:06.665Z,25.26
2022-08-18T05:58:45.771Z,25.32
2022-08-18T06:01:21.179Z,25.42
2022-08-18T06:03:59.854Z,25.47
2022-08-18T06:06:34.059Z,25.54
2022-08-18T06:09:31.049Z,25.62
2022-08-18T06:12:30.172Z,25.78
2022-08-18T06:15:06.392Z,26.00
2022-08-18T06:17:48.316Z,26.60
2022-08-18T06:20:32.657Z,27.15
2022-08-18T06:23:31.510Z,27.69
2022-08-18T06:26:24.769Z,28.12
2022-08-18T06:29:17.928Z,28.50
2022-08-18T06:31:52.946Z,28.97
2022-08-18T06:34:34.049Z,29.42
2022-08-18T06:37:21.279Z,29.69
2022-08-18T06:39:54.136Z,29.98
2022-08-18T06:42:29.855Z,30.10
2022-08-18T06:45:08.406Z,30.21
2022-08-18T06:48:03.477Z,30.30
2022-08-18T06:50:39.686Z,30.51
2022-08-18T06:53:25.927Z,31.20
2022-08-18T06:55:49.651Z,31.23
2022-08-18T06:58:24.860Z,31.73
2022-08-18T07:01:08.142Z,32.00
2022-08-18T07:03:46.704Z,32.15
2022-08-18T07:06:25.602Z,32.14
2022-08-18T07:09:17.447Z,31.78
2022-08-18T07:12:11.014Z,31.33
2022-08-18T07:14:49.755Z,30.97
2022-08-18T07:17:42.318Z,30.62
2022-08-18T07:20:10.641Z,30.32
2022-08-18T07:23:00.718Z,30.08
2022-08-18T07:25:45.064Z,29.84
2022-08-18T07:28:37.199Z,29.66
2022-08-18T07:31:19.171Z,29.54
2022-08-18T07:33:56.073Z,29.46
2022-08-18T07:36:30.988Z,29.40
2022-08-18T07:39:09.085Z,29.39
2022-08-18T07:41:50.607Z,29.39
2022-08-18T07:44:43.472Z,29.40
2022-08-18T07:47:21.403Z,29.38
2022-08-18T07:50:16.921Z,29.39
2022-08-18T07:52:43.950Z,29.40
2022-08-18T07:55:30.198Z,29.40
2022-08-18T07:58:25.964Z,29.39
2022-08-18T08:01:01.832Z,29.32
2022-08-18T08:03:37.819Z,29.28
2022-08-18T08:06:31.080Z,29.27
2022-08-18T08:09:15.554Z,29.28
2022-08-18T08:12:23.877Z,29.35
2022-08-18T08:14:59.658Z,29.33
2022-08-18T08:17:36.645Z,29.31
2022-08-18T08:20:35.889Z,29.37
2022-08-18T08:23:18.001Z,29.39
2022-08-18T08:25:59.029Z,29.46
2022-08-18T08:28:40.636Z,29.54
2022-08-18T08:31:36.342Z,29.57
2022-08-18T08:34:05.305Z,29.59
2022-08-18T08:36:37.386Z,29.63
2022-08-18T08:39:12.446Z,29.72
2022-08-18T08:42:31.596Z,29.76
2022-08-18T08:44:53.380Z,29.86
2022-08-18T08:47:23.375Z,29.85
2022-08-18T08:50:00.653Z,29.86
2022-08-18T08:52:57.240Z,29.84
2022-08-18T08:55:32.549Z,29.87
2022-08-18T08:58:23.216Z,29.87
2022-08-18T09:00:58.184Z,29.97
2022-08-18T09:03:39.152Z,30.02
2022-08-18T09:06:14.169Z,30.05
2022-08-18T09:09:10.325Z,30.06
2022-08-18T09:11:51.908Z,30.07
2022-08-18T09:14:46.924Z,30.13
2022-08-18T09:17:34.197Z,30.16
2022-08-18T09:20:29.191Z,30.20
2022-08-18T09:23:07.227Z,30.21
2022-08-18T09:25:45.422Z,30.23
2022-08-18T09:28:24.847Z,30.32
2022-08-18T09:31:09.258Z,30.38
2022-08-18T09:33:45.807Z,30.39
2022-08-18T09:36:54.147Z,30.49
2022-08-18T09:39:56.525Z,30.59
2022-08-18T09:45:35.597Z,30.80
2022-08-18T09:51:20.869Z,30.83
2022-08-18T09:53:58.061Z,30.85
2022-08-18T09:56:55.794Z,30.88
2022-08-18T09:59:49.139Z,30.91
2022-08-18T10:02:32.248Z,30.91
2022-08-18T10:05:22.605Z,31.03
2022-08-18T10:08:09.929Z,31.02
2022-08-18T10:11:01.371Z,31.06
2022-08-18T10:13:51.017Z,31.10
2022-08-18T10:16:46.191Z,31.05
2022-08-18T10:19:09.379Z,31.08
2022-08-18T10:21:59.443Z,31.05
2022-08-18T10:24:46.427Z,31.06
2022-08-18T10:27:36.917Z,31.09
2022-08-18T10:30:12.265Z,31.10
2022-08-18T10:32:54.138Z,31.04
2022-08-18T10:35:38.752Z,31.00
2022-08-18T10:38:18.375Z,30.98
2022-08-18T10:41:10.052Z,30.94
2022-08-18T10:43:57.645Z,30.92
2022-08-18T10:46:26.649Z,30.96
2022-08-18T10:49:04.446Z,30.96
2022-08-18T10:51:57.850Z,31.04
2022-08-18T10:54:51.989Z,30.98
2022-08-18T10:57:21.740Z,31.00
2022-08-18T11:00:07.492Z,31.06
2022-08-18T11:03:13.874Z,31.07
2022-08-18T11:05:33.362Z,31.12
2022-08-18T11:08:15.983Z,31.18
2022-08-18T11:11:32.858Z,31.22
2022-08-18T11:13:39.911Z,31.20
2022-08-18T11:16:24.758Z,31.14
2022-08-18T11:19:06.387Z,31.15
2022-08-18T11:21:43.468Z,31.18
2022-08-18T11:24:25.002Z,31.18
2022-08-18T11:27:03.240Z,31.16
2022-08-18T11:29:38.184Z,31.21
2022-08-18T11:32:31.224Z,31.42
2022-08-18T11:35:10.915Z,31.91
2022-08-18T11:37:53.255Z,32.38
2022-08-18T11:46:19.162Z,33.13
2022-08-18T11:48:54.300Z,32.76
2022-08-18T11:51:29.110Z,32.45
2022-08-18T11:54:16.079Z,32.46
2022-08-18T11:56:48.661Z,32.07
2022-08-18T11:59:53.063Z,31.96
2022-08-18T12:02:08.891Z,31.89
2022-08-18T12:04:43.880Z,31.90
2022-08-18T12:07:28.240Z,31.98
2022-08-18T12:10:26.118Z,32.37
2022-08-18T12:13:03.409Z,33.22
2022-08-18T12:18:11.234Z,37.18
2022-08-18T12:20:45.557Z,39.50
2022-08-18T12:23:19.400Z,41.71
2022-08-18T12:25:53.512Z,43.27
2022-08-18T12:28:28.431Z,44.32
2022-08-18T12:31:02.154Z,45.37
2022-08-18T12:33:48.332Z,46.36
2022-08-18T12:36:11.199Z,47.21
2022-08-18T12:38:52.281Z,47.96
2022-08-18T12:41:23.916Z,48.41
2022-08-18T12:43:58.488Z,48.64
2022-08-18T12:46:31.717Z,49.21
2022-08-18T12:49:06.496Z,49.76
2022-08-18T12:51:39.568Z,50.41
2022-08-18T12:54:12.544Z,50.80
2022-08-18T12:56:48.632Z,51.51
2022-08-18T12:59:21.881Z,50.84
2022-08-18T13:01:58.808Z,50.90
2022-08-18T13:04:30.935Z,51.59
2022-08-18T13:07:05.955Z,52.13
2022-08-18T13:09:47.971Z,53.00
2022-08-18T13:12:16.155Z,53.88
2022-08-18T13:14:51.129Z,53.92
2022-08-18T13:17:30.573Z,54.23
2022-08-18T13:19:58.267Z,54.10
2022-08-18T13:22:32.172Z,53.88
2022-08-18T13:25:07.452Z,53.97
2022-08-18T13:27:45.107Z,54.15
2022-08-18T13:30:30.131Z,54.45
2022-08-18T13:32:59.007Z,54.57
2022-08-18T13:35:30.175Z,54.78
2022-08-18T13:38:03.203Z,54.64
2022-08-18T13:40:35.411Z,54.35
2022-08-18T13:43:09.212Z,54.17
2022-08-18T13:45:44.006Z,54.09
2022-08-18T13:48:17.311Z,53.94
2022-08-18T13:50:52.855Z,53.72
2022-08-18T13:53:27.273Z,53.32
2022-08-18T13:55:59.645Z,52.77
2022-08-18T13:58:32.625Z,52.85
2022-08-18T14:01:42.039Z,52.70
2022-08-18T14:03:47.221Z,52.95
2022-08-18T14:06:22.887Z,52.97
2022-08-18T14:08:55.985Z,52.90
2022-08-18T14:11:32.871Z,52.80
2022-08-18T14:14:06.417Z,52.31
2022-08-18T14:16:42.394Z,51.80
2022-08-18T14:19:32.990Z,51.48
2022-08-18T14:22:25.417Z,51.21
2022-08-18T14:25:15.337Z,51.15
2022-08-18T14:27:56.976Z,51.13
2022-08-18T14:30:23.690Z,51.09
2022-08-18T14:32:58.186Z,51.04
2022-08-18T14:36:04.722Z,50.97
2022-08-18T14:38:07.319Z,50.97
2022-08-18T14:40:43.826Z,50.73
2022-08-18T14:43:21.549Z,50.36
2022-08-18T14:45:58.046Z,50.09
2022-08-18T14:48:30.197Z,49.88
2022-08-18T14:51:02.972Z,49.55
2022-08-18T14:53:38.129Z,51.35
2022-08-18T14:56:12.505Z,49.34
2022-08-18T14:58:46.102Z,48.88
2022-08-18T15:01:20.347Z,47.81
2022-08-18T15:03:55.149Z,45.70
2022-08-18T15:06:27.461Z,43.31
2022-08-18T15:08:59.562Z,41.31
2022-08-18T15:11:31.935Z,39.55
2022-08-18T15:14:05.719Z,38.15
2022-08-18T15:16:38.683Z,36.97
2022-08-18T15:19:58.854Z,36.05
2022-08-18T15:22:03.687Z,35.25
2022-08-18T15:24:55.125Z,34.62
2022-08-18T15:27:42.328Z,33.99
2022-08-18T15:30:19.372Z,33.47
2022-08-18T15:32:52.065Z,33.07
2022-08-18T15:35:24.772Z,32.76
2022-08-18T15:37:57.607Z,32.47
2022-08-18T15:40:35.794Z,32.20
2022-08-18T15:43:10.067Z,31.98
2022-08-18T15:45:51.003Z,31.78
2022-08-18T15:48:23.669Z,31.60
2022-08-18T15:50:56.900Z,31.46
2022-08-18T15:53:30.240Z,31.32
2022-08-18T15:56:04.246Z,31.17
2022-08-18T15:58:37.753Z,31.03
2022-08-18T16:01:29.849Z,30.87
2022-08-18T16:03:48.922Z,30.74
2022-08-18T16:06:27.558Z,30.60
2022-08-18T16:08:58.640Z,30.49
2022-08-18T16:11:31.456Z,30.35
2022-08-18T16:14:03.890Z,30.24
2022-08-18T16:16:36.720Z,30.13
2022-08-18T16:19:10.466Z,29.99
2022-08-18T16:21:42.723Z,29.88
2022-08-18T16:24:18.257Z,29.79
2022-08-18T16:26:52.111Z,29.67
2022-08-18T16:29:24.667Z,29.59
2022-08-18T16:31:57.347Z,29.45
2022-08-18T16:34:31.021Z,29.39
2022-08-18T16:37:03.563Z,29.31
2022-08-18T16:39:36.735Z,29.24
2022-08-18T16:42:09.150Z,29.15
2022-08-18T16:44:41.339Z,29.04
2022-08-18T16:47:14.386Z,28.89
2022-08-18T16:49:50.911Z,28.79
2022-08-18T16:52:23.760Z,28.70
2022-08-18T16:54:57.531Z,28.62
2022-08-18T16:57:53.743Z,28.52
2022-08-18T17:00:39.623Z,28.43
2022-08-18T17:03:33.250Z,28.33
2022-08-18T17:06:11.974Z,28.22
2022-08-18T17:08:44.985Z,28.09
2022-08-18T17:11:20.354Z,28.03
2022-08-18T17:13:54.403Z,27.94
2022-08-18T17:16:29.811Z,27.88
2022-08-18T17:19:03.772Z,27.80
2022-08-18T17:21:37.757Z,27.71
2022-08-18T17:24:11.661Z,27.66
2022-08-18T17:27:00.328Z,27.60
2022-08-18T17:29:37.474Z,27.54
2022-08-18T17:32:13.009Z,27.46
2022-08-18T17:34:49.759Z,27.44
2022-08-18T17:37:25.500Z,27.38
2022-08-18T17:40:04.353Z,27.37
2022-08-18T17:42:40.147Z,27.36
2022-08-18T17:45:21.492Z,27.32
2022-08-18T17:47:59.749Z,27.29
2022-08-18T17:50:55.681Z,27.27
2022-08-18T17:53:29.905Z,27.31
2022-08-18T17:56:20.579Z,27.31
2022-08-18T17:58:58.565Z,27.32
2022-08-18T18:01:32.193Z,27.30
2022-08-18T18:04:07.878Z,27.27
2022-08-18T18:06:43.492Z,27.20
2022-08-18T18:09:26.307Z,27.15
2022-08-18T18:12:00.504Z,27.11
2022-08-18T18:14:41.689Z,27.06
2022-08-18T18:17:28.907Z,26.93
2022-08-18T18:20:22.076Z,26.82
2022-08-18T18:22:54.751Z,26.76
2022-08-18T18:25:34.824Z,26.67
2022-08-18T18:28:07.523Z,26.66
2022-08-18T18:30:39.675Z,26.64
2022-08-18T18:33:18.402Z,26.59
2022-08-18T18:36:00.843Z,26.55
2022-08-18T18:38:39.091Z,26.50
2022-08-18T18:41:17.175Z,26.40
2022-08-18T18:43:52.189Z,26.35
2022-08-18T18:46:36.454Z,26.26
2022-08-18T18:49:21.860Z,26.17
2022-08-18T18:51:56.843Z,26.17
2022-08-18T18:54:52.969Z,26.14
2022-08-18T18:57:32.432Z,26.06
2022-08-18T19:00:13.457Z,25.96
2022-08-18T19:02:52.096Z,25.86
2022-08-18T19:05:32.541Z,25.83
2022-08-18T19:08:27.704Z,25.79
2022-08-18T19:11:02.841Z,25.75
2022-08-18T19:13:37.897Z,25.77
2022-08-18T19:16:23.894Z,25.77
2022-08-18T19:19:35.978Z,25.79
2022-08-18T19:22:03.774Z,25.80
2022-08-18T19:24:24.149Z,25.85
2022-08-18T19:26:58.920Z,25.83
2022-08-18T19:29:34.110Z,25.84
2022-08-18T19:32:16.735Z,25.82
2022-08-18T19:34:52.484Z,25.80
2022-08-18T19:37:32.713Z,25.77
2022-08-18T19:40:10.864Z,25.75
2022-08-18T19:42:49.037Z,25.74
2022-08-18T19:45:35.999Z,25.70
2022-08-18T19:48:18.392Z,25.65
2022-08-18T19:50:56.019Z,25.61
2022-08-18T19:53:52.291Z,25.58
2022-08-18T19:56:24.079Z,25.54
2022-08-18T19:59:18.676Z,25.51
2022-08-18T20:01:41.861Z,25.46
2022-08-18T20:04:39.720Z,25.43
2022-08-18T20:07:20.795Z,25.38
2022-08-18T20:10:28.810Z,25.35
2022-08-18T20:13:26.220Z,25.31
2022-08-18T20:16:11.818Z,25.28
2022-08-18T20:18:46.383Z,25.22
2022-08-18T20:21:21.349Z,25.18
2022-08-18T20:24:08.838Z,25.12
2022-08-18T20:26:44.313Z,25.06
2022-08-18T20:29:19.212Z,25.03
2022-08-18T20:32:00.461Z,24.99
2022-08-18T20:34:35.669Z,24.96
2022-08-18T20:37:10.524Z,24.92
2022-08-18T20:39:43.267Z,24.86
2022-08-18T20:42:27.006Z,24.97
2022-08-18T20:45:03.547Z,24.83
2022-08-18T20:47:53.688Z,24.80
2022-08-18T20:50:50.417Z,24.75
2022-08-18T20:53:41.733Z,24.70
2022-08-18T20:56:32.403Z,24.63
2022-08-18T20:59:10.127Z,24.57
2022-08-18T21:01:42.312Z,24.51
2022-08-18T21:04:14.529Z,24.49
2022-08-18T21:06:46.811Z,24.44
2022-08-18T21:09:19.693Z,24.40
2022-08-18T21:11:52.571Z,24.37
2022-08-18T21:14:31.886Z,24.32
2022-08-18T21:17:08.991Z,24.30
2022-08-18T21:19:43.514Z,24.29
2022-08-18T21:22:14.605Z,24.24
2022-08-18T21:24:49.155Z,24.36
2022-08-18T21:27:37.644Z,24.16
2022-08-18T21:30:21.973Z,24.14
2022-08-18T21:32:55.266Z,24.10
2022-08-18T21:35:38.208Z,24.02
2022-08-18T21:38:12.565Z,23.93
2022-08-18T21:40:50.351Z,23.84
2022-08-18T21:43:48.856Z,23.77
2022-08-18T21:46:29.977Z,23.69
2022-08-18T21:49:04.748Z,23.61
2022-08-18T21:51:49.517Z,23.54
2022-08-18T21:54:28.098Z,23.48
2022-08-18T21:57:22.715Z,23.43
2022-08-18T22:00:23.066Z,23.39
2022-08-18T22:03:13.345Z,23.34
2022-08-18T22:06:03.587Z,23.28
2022-08-18T22:08:38.760Z,23.20
2022-08-18T22:11:52.009Z,23.13
2022-08-18T22:14:35.797Z,23.03
2022-08-18T22:17:25.640Z,22.96
2022-08-18T22:19:59.250Z,22.92
2022-08-18T22:22:51.051Z,22.88
2022-08-18T22:25:24.372Z,22.81
2022-08-18T22:27:57.103Z,22.76
2022-08-18T22:30:29.358Z,22.73
2022-08-18T22:33:02.201Z,22.67
2022-08-18T22:35:34.205Z,22.65
2022-08-18T22:38:06.445Z,22.66
2022-08-18T22:40:38.596Z,22.64
2022-08-18T22:43:10.728Z,22.67
2022-08-18T22:45:42.836Z,22.63
2022-08-18T22:48:16.328Z,22.63
2022-08-18T22:50:51.170Z,22.62
2022-08-18T22:53:22.345Z,22.63
2022-08-18T22:55:54.454Z,22.65
2022-08-18T22:58:29.496Z,22.66
2022-08-18T23:01:05.692Z,22.67
2022-08-18T23:03:41.723Z,22.68
2022-08-18T23:06:10.766Z,22.69
2022-08-18T23:08:54.689Z,22.69
2022-08-18T23:11:16.937Z,22.70
2022-08-18T23:13:49.267Z,22.75
2022-08-18T23:16:30.567Z,22.77
2022-08-18T23:18:56.060Z,22.79
2022-08-18T23:21:34.245Z,22.83
2022-08-18T23:24:02.087Z,22.89
2022-08-18T23:26:37.344Z,22.91
2022-08-18T23:29:18.508Z,22.97
2022-08-18T23:31:52.651Z,23.00
2022-08-18T23:34:27.305Z,23.04
2022-08-18T23:37:01.580Z,23.10
2022-08-18T23:39:35.732Z,23.17
2022-08-18T23:42:09.960Z,23.20
2022-08-18T23:44:42.401Z,23.21
2022-08-18T23:47:14.751Z,23.28
2022-08-18T23:49:47.045Z,23.28
2022-08-18T23:52:19.155Z,23.28
2022-08-18T23:54:51.167Z,23.28
2022-08-18T23:57:23.340Z,23.27
2022-08-18T23:59:56.840Z,23.22
